sensor_id;sensor_type;location;lat;lon;timestamp;temperature;humidity
7666;DHT22;3875;46.562;4.898;2023-12-20T00:00:20;4.50;98.60
7666;DHT22;3875;46.562;4.898;2023-12-20T00:02:46;4.60;98.60
7666;DHT22;3875;46.562;4.898;2023-12-20T00:05:13;4.60;98.60
7666;DHT22;3875;46.562;4.898;2023-12-20T00:07:39;4.60;98.60
7666;DHT22;3875;46.562;4.898;2023-12-20T00:10:05;4.60;98.60
7666;DHT22;3875;46.562;4.898;2023-12-20T00:12:31;4.60;98.60
7666;DHT22;3875;46.562;4.898;2023-12-20T00:14:57;4.60;98.60
7666;DHT22;3875;46.562;4.898;2023-12-20T00:17:23;4.60;98.60
7666;DHT22;3875;46.562;4.898;2023-12-20T00:19:48;4.60;98.60
7666;DHT22;3875;46.562;4.898;2023-12-20T00:22:14;4.60;98.60
7666;DHT22;3875;46.562;4.898;2023-12-20T00:24:39;4.60;98.60
7666;DHT22;3875;46.562;4.898;2023-12-20T00:27:05;4.70;98.60
7666;DHT22;3875;46.562;4.898;2023-12-20T00:29:31;4.70;98.60
7666;DHT22;3875;46.562;4.898;2023-12-20T00:31:56;4.70;98.60
7666;DHT22;3875;46.562;4.898;2023-12-20T00:34:22;4.70;98.60
7666;DHT22;3875;46.562;4.898;2023-12-20T00:36:47;4.70;98.60
7666;DHT22;3875;46.562;4.898;2023-12-20T00:39:13;4.70;98.60
7666;DHT22;3875;46.562;4.898;2023-12-20T00:41:39;4.70;98.60
7666;DHT22;3875;46.562;4.898;2023-12-20T00:44:05;4.70;98.60
7666;DHT22;3875;46.562;4.898;2023-12-20T00:46:30;4.70;98.60
7666;DHT22;3875;46.562;4.898;2023-12-20T00:48:58;4.70;98.60
7666;DHT22;3875;46.562;4.898;2023-12-20T00:51:24;4.70;98.60
7666;DHT22;3875;46.562;4.898;2023-12-20T00:53:50;4.70;98.60
7666;DHT22;3875;46.562;4.898;2023-12-20T00:56:21;4.70;98.60
7666;DHT22;3875;46.562;4.898;2023-12-20T00:58:46;4.70;98.60
7666;DHT22;3875;46.562;4.898;2023-12-20T01:01:12;4.70;98.60
7666;DHT22;3875;46.562;4.898;2023-12-20T01:03:38;4.70;98.60
7666;DHT22;3875;46.562;4.898;2023-12-20T01:06:04;4.80;98.60
7666;DHT22;3875;46.562;4.898;2023-12-20T01:08:30;4.80;98.60
7666;DHT22;3875;46.562;4.898;2023-12-20T01:10:56;4.80;98.60
7666;DHT22;3875;46.562;4.898;2023-12-20T01:13:21;4.80;98.60
7666;DHT22;3875;46.562;4.898;2023-12-20T01:15:47;4.80;98.60
7666;DHT22;3875;46.562;4.898;2023-12-20T01:18:13;4.90;98.60
7666;DHT22;3875;46.562;4.898;2023-12-20T01:20:39;4.90;98.60
7666;DHT22;3875;46.562;4.898;2023-12-20T01:23:05;4.90;98.60
7666;DHT22;3875;46.562;4.898;2023-12-20T01:25:31;4.90;98.60
7666;DHT22;3875;46.562;4.898;2023-12-20T01:27:56;4.90;98.60
7666;DHT22;3875;46.562;4.898;2023-12-20T01:30:22;4.90;98.60
7666;DHT22;3875;46.562;4.898;2023-12-20T01:32:48;5.00;98.60
7666;DHT22;3875;46.562;4.898;2023-12-20T01:35:13;5.00;98.60
7666;DHT22;3875;46.562;4.898;2023-12-20T01:37:40;5.00;98.60
7666;DHT22;3875;46.562;4.898;2023-12-20T01:40:06;5.00;98.60
7666;DHT22;3875;46.562;4.898;2023-12-20T01:42:31;5.00;98.60
7666;DHT22;3875;46.562;4.898;2023-12-20T01:44:57;5.00;98.60
7666;DHT22;3875;46.562;4.898;2023-12-20T01:47:23;5.00;98.60
7666;DHT22;3875;46.562;4.898;2023-12-20T01:49:49;5.00;98.60
7666;DHT22;3875;46.562;4.898;2023-12-20T01:52:16;5.00;98.60
7666;DHT22;3875;46.562;4.898;2023-12-20T01:54:42;5.00;98.60
7666;DHT22;3875;46.562;4.898;2023-12-20T01:57:08;5.00;98.60
7666;DHT22;3875;46.562;4.898;2023-12-20T01:59:35;5.00;98.60
7666;DHT22;3875;46.562;4.898;2023-12-20T02:02:02;5.00;98.60
7666;DHT22;3875;46.562;4.898;2023-12-20T02:04:28;5.00;98.60
7666;DHT22;3875;46.562;4.898;2023-12-20T02:06:56;5.00;98.60
7666;DHT22;3875;46.562;4.898;2023-12-20T02:09:23;5.00;98.60
7666;DHT22;3875;46.562;4.898;2023-12-20T02:11:49;4.90;98.60
7666;DHT22;3875;46.562;4.898;2023-12-20T02:14:14;4.90;98.60
7666;DHT22;3875;46.562;4.898;2023-12-20T02:16:40;4.90;98.60
7666;DHT22;3875;46.562;4.898;2023-12-20T02:19:13;5.00;98.60
7666;DHT22;3875;46.562;4.898;2023-12-20T02:21:39;5.00;98.60
7666;DHT22;3875;46.562;4.898;2023-12-20T02:24:05;5.00;98.60
7666;DHT22;3875;46.562;4.898;2023-12-20T02:26:32;5.00;98.60
7666;DHT22;3875;46.562;4.898;2023-12-20T02:28:59;5.00;98.60
7666;DHT22;3875;46.562;4.898;2023-12-20T02:31:24;5.00;98.60
7666;DHT22;3875;46.562;4.898;2023-12-20T02:33:50;5.00;98.60
7666;DHT22;3875;46.562;4.898;2023-12-20T02:36:16;5.00;98.60
7666;DHT22;3875;46.562;4.898;2023-12-20T02:38:41;5.00;98.60
7666;DHT22;3875;46.562;4.898;2023-12-20T02:41:07;5.00;98.60
7666;DHT22;3875;46.562;4.898;2023-12-20T02:43:32;5.00;98.60
7666;DHT22;3875;46.562;4.898;2023-12-20T02:45:58;5.00;98.60
7666;DHT22;3875;46.562;4.898;2023-12-20T02:48:24;5.00;98.60
7666;DHT22;3875;46.562;4.898;2023-12-20T02:50:49;5.00;98.60
7666;DHT22;3875;46.562;4.898;2023-12-20T02:53:15;5.00;98.60
7666;DHT22;3875;46.562;4.898;2023-12-20T02:55:41;4.90;98.60
7666;DHT22;3875;46.562;4.898;2023-12-20T02:58:07;4.90;98.60
7666;DHT22;3875;46.562;4.898;2023-12-20T03:00:33;4.90;98.60
7666;DHT22;3875;46.562;4.898;2023-12-20T03:02:58;4.90;98.60
7666;DHT22;3875;46.562;4.898;2023-12-20T03:05:25;5.00;98.60
7666;DHT22;3875;46.562;4.898;2023-12-20T03:07:51;5.00;98.60
7666;DHT22;3875;46.562;4.898;2023-12-20T03:10:18;4.90;98.60
7666;DHT22;3875;46.562;4.898;2023-12-20T03:12:43;5.00;98.60
7666;DHT22;3875;46.562;4.898;2023-12-20T03:15:09;5.00;98.60
7666;DHT22;3875;46.562;4.898;2023-12-20T03:17:35;5.00;98.60
7666;DHT22;3875;46.562;4.898;2023-12-20T03:20:01;5.00;98.60
7666;DHT22;3875;46.562;4.898;2023-12-20T03:22:27;5.00;98.60
7666;DHT22;3875;46.562;4.898;2023-12-20T03:24:52;5.00;98.60
7666;DHT22;3875;46.562;4.898;2023-12-20T03:27:18;5.00;98.60
7666;DHT22;3875;46.562;4.898;2023-12-20T03:29:43;5.00;98.60
7666;DHT22;3875;46.562;4.898;2023-12-20T03:32:09;5.00;98.60
7666;DHT22;3875;46.562;4.898;2023-12-20T03:34:35;5.00;98.60
7666;DHT22;3875;46.562;4.898;2023-12-20T03:37:00;5.10;98.60
7666;DHT22;3875;46.562;4.898;2023-12-20T03:39:26;5.00;98.60
7666;DHT22;3875;46.562;4.898;2023-12-20T03:41:51;5.00;98.60
7666;DHT22;3875;46.562;4.898;2023-12-20T03:44:17;5.00;98.60
7666;DHT22;3875;46.562;4.898;2023-12-20T03:46:42;5.00;98.60
7666;DHT22;3875;46.562;4.898;2023-12-20T03:49:08;5.00;98.60
7666;DHT22;3875;46.562;4.898;2023-12-20T03:51:34;5.00;98.60
7666;DHT22;3875;46.562;4.898;2023-12-20T03:53:59;5.00;98.60
7666;DHT22;3875;46.562;4.898;2023-12-20T03:56:25;5.00;98.60
7666;DHT22;3875;46.562;4.898;2023-12-20T03:58:51;5.00;98.60
7666;DHT22;3875;46.562;4.898;2023-12-20T04:01:16;5.00;98.60
7666;DHT22;3875;46.562;4.898;2023-12-20T04:03:42;5.00;98.60
7666;DHT22;3875;46.562;4.898;2023-12-20T04:06:07;5.00;98.60
7666;DHT22;3875;46.562;4.898;2023-12-20T04:08:33;5.00;98.60
7666;DHT22;3875;46.562;4.898;2023-12-20T04:10:59;5.00;98.60
7666;DHT22;3875;46.562;4.898;2023-12-20T04:13:24;4.90;98.60
7666;DHT22;3875;46.562;4.898;2023-12-20T04:15:50;4.90;98.60
7666;DHT22;3875;46.562;4.898;2023-12-20T04:18:17;4.90;98.60
7666;DHT22;3875;46.562;4.898;2023-12-20T04:20:42;5.00;98.60
7666;DHT22;3875;46.562;4.898;2023-12-20T04:23:08;5.00;98.60
7666;DHT22;3875;46.562;4.898;2023-12-20T04:25:34;5.00;98.60
7666;DHT22;3875;46.562;4.898;2023-12-20T04:27:59;5.00;98.60
7666;DHT22;3875;46.562;4.898;2023-12-20T04:30:25;5.10;98.60
7666;DHT22;3875;46.562;4.898;2023-12-20T04:32:50;5.10;98.60
7666;DHT22;3875;46.562;4.898;2023-12-20T04:35:16;5.10;98.60
7666;DHT22;3875;46.562;4.898;2023-12-20T04:37:41;5.10;98.60
7666;DHT22;3875;46.562;4.898;2023-12-20T04:40:07;5.00;98.60
7666;DHT22;3875;46.562;4.898;2023-12-20T04:42:33;5.00;98.60
7666;DHT22;3875;46.562;4.898;2023-12-20T04:44:59;5.00;98.60
7666;DHT22;3875;46.562;4.898;2023-12-20T04:47:25;5.00;98.60
7666;DHT22;3875;46.562;4.898;2023-12-20T04:49:50;5.10;98.60
7666;DHT22;3875;46.562;4.898;2023-12-20T04:52:16;5.10;98.60
7666;DHT22;3875;46.562;4.898;2023-12-20T04:54:42;5.10;98.60
7666;DHT22;3875;46.562;4.898;2023-12-20T04:57:07;5.10;98.60
7666;DHT22;3875;46.562;4.898;2023-12-20T04:59:33;5.20;98.60
7666;DHT22;3875;46.562;4.898;2023-12-20T05:01:59;5.20;98.60
7666;DHT22;3875;46.562;4.898;2023-12-20T05:04:24;5.20;98.60
7666;DHT22;3875;46.562;4.898;2023-12-20T05:06:50;5.30;98.60
7666;DHT22;3875;46.562;4.898;2023-12-20T05:09:15;5.30;98.60
7666;DHT22;3875;46.562;4.898;2023-12-20T05:11:41;5.30;98.60
7666;DHT22;3875;46.562;4.898;2023-12-20T05:14:07;5.30;98.60
7666;DHT22;3875;46.562;4.898;2023-12-20T05:16:33;5.40;98.60
7666;DHT22;3875;46.562;4.898;2023-12-20T05:18:59;5.40;98.60
7666;DHT22;3875;46.562;4.898;2023-12-20T05:21:26;5.40;98.60
7666;DHT22;3875;46.562;4.898;2023-12-20T05:23:52;5.40;98.60
7666;DHT22;3875;46.562;4.898;2023-12-20T05:26:17;5.50;98.60
7666;DHT22;3875;46.562;4.898;2023-12-20T05:28:43;5.50;98.60
7666;DHT22;3875;46.562;4.898;2023-12-20T05:31:09;5.50;98.60
7666;DHT22;3875;46.562;4.898;2023-12-20T05:33:35;5.50;98.60
7666;DHT22;3875;46.562;4.898;2023-12-20T05:36:00;5.60;98.60
7666;DHT22;3875;46.562;4.898;2023-12-20T05:38:26;5.60;98.60
7666;DHT22;3875;46.562;4.898;2023-12-20T05:40:54;5.70;98.60
7666;DHT22;3875;46.562;4.898;2023-12-20T05:43:20;5.80;98.60
7666;DHT22;3875;46.562;4.898;2023-12-20T05:45:45;5.90;98.60
7666;DHT22;3875;46.562;4.898;2023-12-20T05:48:11;6.10;98.60
7666;DHT22;3875;46.562;4.898;2023-12-20T05:50:37;6.10;98.60
7666;DHT22;3875;46.562;4.898;2023-12-20T05:53:02;6.20;98.60
7666;DHT22;3875;46.562;4.898;2023-12-20T05:55:28;6.30;98.60
7666;DHT22;3875;46.562;4.898;2023-12-20T05:57:54;6.40;98.60
7666;DHT22;3875;46.562;4.898;2023-12-20T06:00:19;6.40;98.60
7666;DHT22;3875;46.562;4.898;2023-12-20T06:02:45;6.50;98.60
7666;DHT22;3875;46.562;4.898;2023-12-20T06:05:10;6.60;98.60
7666;DHT22;3875;46.562;4.898;2023-12-20T06:07:37;6.60;98.60
7666;DHT22;3875;46.562;4.898;2023-12-20T06:10:02;6.70;98.60
7666;DHT22;3875;46.562;4.898;2023-12-20T06:12:28;6.80;98.60
7666;DHT22;3875;46.562;4.898;2023-12-20T06:14:54;6.80;98.60
7666;DHT22;3875;46.562;4.898;2023-12-20T06:17:20;6.80;98.60
7666;DHT22;3875;46.562;4.898;2023-12-20T06:19:45;6.80;98.60
7666;DHT22;3875;46.562;4.898;2023-12-20T06:22:14;6.80;98.60
7666;DHT22;3875;46.562;4.898;2023-12-20T06:24:39;6.70;98.60
7666;DHT22;3875;46.562;4.898;2023-12-20T06:27:05;6.70;98.60
7666;DHT22;3875;46.562;4.898;2023-12-20T06:29:31;6.70;98.60
7666;DHT22;3875;46.562;4.898;2023-12-20T06:31:56;6.70;98.60
7666;DHT22;3875;46.562;4.898;2023-12-20T06:34:22;6.70;98.60
7666;DHT22;3875;46.562;4.898;2023-12-20T06:36:48;6.70;98.60
7666;DHT22;3875;46.562;4.898;2023-12-20T06:39:14;6.70;98.60
7666;DHT22;3875;46.562;4.898;2023-12-20T06:41:40;6.60;98.60
7666;DHT22;3875;46.562;4.898;2023-12-20T06:44:05;6.60;98.60
7666;DHT22;3875;46.562;4.898;2023-12-20T06:46:31;6.60;98.60
7666;DHT22;3875;46.562;4.898;2023-12-20T06:48:57;6.70;98.60
7666;DHT22;3875;46.562;4.898;2023-12-20T06:51:22;6.70;98.60
7666;DHT22;3875;46.562;4.898;2023-12-20T06:53:51;6.70;98.60
7666;DHT22;3875;46.562;4.898;2023-12-20T06:56:17;6.80;98.60
7666;DHT22;3875;46.562;4.898;2023-12-20T06:58:43;6.80;98.60
7666;DHT22;3875;46.562;4.898;2023-12-20T07:01:15;6.90;98.60
7666;DHT22;3875;46.562;4.898;2023-12-20T07:03:41;6.90;98.60
7666;DHT22;3875;46.562;4.898;2023-12-20T07:06:07;6.90;98.60
7666;DHT22;3875;46.562;4.898;2023-12-20T07:08:33;6.90;98.60
7666;DHT22;3875;46.562;4.898;2023-12-20T07:10:59;6.90;98.60
7666;DHT22;3875;46.562;4.898;2023-12-20T07:13:24;6.90;98.60
7666;DHT22;3875;46.562;4.898;2023-12-20T07:15:50;6.90;98.60
7666;DHT22;3875;46.562;4.898;2023-12-20T07:18:16;6.90;98.60
7666;DHT22;3875;46.562;4.898;2023-12-20T07:20:42;6.90;98.60
7666;DHT22;3875;46.562;4.898;2023-12-20T07:23:08;6.90;98.60
7666;DHT22;3875;46.562;4.898;2023-12-20T07:25:34;6.90;98.60
7666;DHT22;3875;46.562;4.898;2023-12-20T07:28:00;6.90;98.60
7666;DHT22;3875;46.562;4.898;2023-12-20T07:30:25;6.90;98.60
7666;DHT22;3875;46.562;4.898;2023-12-20T07:32:51;6.90;98.60
7666;DHT22;3875;46.562;4.898;2023-12-20T07:35:18;6.90;98.60
7666;DHT22;3875;46.562;4.898;2023-12-20T07:37:43;6.90;98.60
7666;DHT22;3875;46.562;4.898;2023-12-20T07:40:10;7.00;98.60
7666;DHT22;3875;46.562;4.898;2023-12-20T07:42:36;7.00;98.60
7666;DHT22;3875;46.562;4.898;2023-12-20T07:45:04;7.00;98.60
7666;DHT22;3875;46.562;4.898;2023-12-20T07:47:30;7.00;98.60
7666;DHT22;3875;46.562;4.898;2023-12-20T07:49:56;7.10;98.60
7666;DHT22;3875;46.562;4.898;2023-12-20T07:52:21;7.10;98.60
7666;DHT22;3875;46.562;4.898;2023-12-20T07:54:48;7.10;98.60
7666;DHT22;3875;46.562;4.898;2023-12-20T07:57:17;7.20;98.60
7666;DHT22;3875;46.562;4.898;2023-12-20T07:59:42;7.20;98.60
7666;DHT22;3875;46.562;4.898;2023-12-20T08:02:09;7.20;98.60
7666;DHT22;3875;46.562;4.898;2023-12-20T08:04:35;7.20;98.60
7666;DHT22;3875;46.562;4.898;2023-12-20T08:07:01;7.20;98.60
7666;DHT22;3875;46.562;4.898;2023-12-20T08:09:26;7.30;98.60
7666;DHT22;3875;46.562;4.898;2023-12-20T08:11:52;7.30;98.60
7666;DHT22;3875;46.562;4.898;2023-12-20T08:14:17;7.30;98.60
7666;DHT22;3875;46.562;4.898;2023-12-20T08:16:43;7.40;98.60
7666;DHT22;3875;46.562;4.898;2023-12-20T08:19:09;7.40;98.60
7666;DHT22;3875;46.562;4.898;2023-12-20T08:21:34;7.50;98.60
7666;DHT22;3875;46.562;4.898;2023-12-20T08:24:00;7.60;98.60
7666;DHT22;3875;46.562;4.898;2023-12-20T08:26:26;7.60;98.60
7666;DHT22;3875;46.562;4.898;2023-12-20T08:28:52;7.70;98.60
7666;DHT22;3875;46.562;4.898;2023-12-20T08:31:18;7.70;98.60
7666;DHT22;3875;46.562;4.898;2023-12-20T08:33:44;7.70;98.60
7666;DHT22;3875;46.562;4.898;2023-12-20T08:36:11;7.70;98.60
7666;DHT22;3875;46.562;4.898;2023-12-20T08:38:36;7.70;98.60
7666;DHT22;3875;46.562;4.898;2023-12-20T08:41:02;7.70;98.60
7666;DHT22;3875;46.562;4.898;2023-12-20T08:43:31;7.70;98.60
7666;DHT22;3875;46.562;4.898;2023-12-20T08:45:57;7.70;98.60
7666;DHT22;3875;46.562;4.898;2023-12-20T08:48:22;7.70;98.60
7666;DHT22;3875;46.562;4.898;2023-12-20T08:50:48;7.70;98.60
7666;DHT22;3875;46.562;4.898;2023-12-20T08:53:15;7.70;98.60
7666;DHT22;3875;46.562;4.898;2023-12-20T08:55:42;7.70;98.60
7666;DHT22;3875;46.562;4.898;2023-12-20T08:58:08;7.70;98.60
7666;DHT22;3875;46.562;4.898;2023-12-20T09:00:34;7.70;98.60
7666;DHT22;3875;46.562;4.898;2023-12-20T09:03:01;7.70;98.60
7666;DHT22;3875;46.562;4.898;2023-12-20T09:05:26;7.70;98.60
7666;DHT22;3875;46.562;4.898;2023-12-20T09:07:52;7.70;98.60
7666;DHT22;3875;46.562;4.898;2023-12-20T09:10:18;7.80;98.60
7666;DHT22;3875;46.562;4.898;2023-12-20T09:12:51;7.80;98.60
7666;DHT22;3875;46.562;4.898;2023-12-20T09:15:16;7.70;98.60
7666;DHT22;3875;46.562;4.898;2023-12-20T09:17:42;7.70;98.60
7666;DHT22;3875;46.562;4.898;2023-12-20T09:20:09;7.80;98.60
7666;DHT22;3875;46.562;4.898;2023-12-20T09:22:35;7.80;98.60
7666;DHT22;3875;46.562;4.898;2023-12-20T09:25:00;7.90;98.60
7666;DHT22;3875;46.562;4.898;2023-12-20T09:27:27;8.00;98.60
7666;DHT22;3875;46.562;4.898;2023-12-20T09:29:53;8.20;98.60
7666;DHT22;3875;46.562;4.898;2023-12-20T09:32:19;8.30;98.60
7666;DHT22;3875;46.562;4.898;2023-12-20T09:34:47;8.30;98.00
7666;DHT22;3875;46.562;4.898;2023-12-20T09:37:13;8.30;97.40
7666;DHT22;3875;46.562;4.898;2023-12-20T09:39:39;8.30;96.20
7666;DHT22;3875;46.562;4.898;2023-12-20T09:42:05;8.30;96.40
7666;DHT22;3875;46.562;4.898;2023-12-20T09:44:31;8.40;96.20
7666;DHT22;3875;46.562;4.898;2023-12-20T09:46:58;8.40;94.70
7666;DHT22;3875;46.562;4.898;2023-12-20T09:49:27;8.40;95.40
7666;DHT22;3875;46.562;4.898;2023-12-20T09:51:57;8.50;95.70
7666;DHT22;3875;46.562;4.898;2023-12-20T09:54:23;8.50;95.30
7666;DHT22;3875;46.562;4.898;2023-12-20T09:56:49;8.70;96.10
7666;DHT22;3875;46.562;4.898;2023-12-20T09:59:15;8.60;94.40
7666;DHT22;3875;46.562;4.898;2023-12-20T10:01:42;8.60;94.00
7666;DHT22;3875;46.562;4.898;2023-12-20T10:04:10;8.70;94.20
7666;DHT22;3875;46.562;4.898;2023-12-20T10:06:46;8.70;94.50
7666;DHT22;3875;46.562;4.898;2023-12-20T10:09:13;8.70;93.10
7666;DHT22;3875;46.562;4.898;2023-12-20T10:11:39;8.70;93.30
7666;DHT22;3875;46.562;4.898;2023-12-20T10:14:06;8.70;93.60
7666;DHT22;3875;46.562;4.898;2023-12-20T10:16:32;8.80;93.40
7666;DHT22;3875;46.562;4.898;2023-12-20T10:18:58;8.80;92.70
7666;DHT22;3875;46.562;4.898;2023-12-20T10:21:25;8.80;92.40
7666;DHT22;3875;46.562;4.898;2023-12-20T10:23:57;8.90;92.90
7666;DHT22;3875;46.562;4.898;2023-12-20T10:26:24;9.00;93.10
7666;DHT22;3875;46.562;4.898;2023-12-20T10:28:54;9.10;91.80
7666;DHT22;3875;46.562;4.898;2023-12-20T10:31:30;9.10;91.50
7666;DHT22;3875;46.562;4.898;2023-12-20T10:33:57;9.10;92.20
7666;DHT22;3875;46.562;4.898;2023-12-20T10:36:25;9.20;92.60
7666;DHT22;3875;46.562;4.898;2023-12-20T10:38:52;9.30;91.10
7666;DHT22;3875;46.562;4.898;2023-12-20T10:41:29;9.30;91.10
7666;DHT22;3875;46.562;4.898;2023-12-20T10:43:58;9.30;91.40
7666;DHT22;3875;46.562;4.898;2023-12-20T10:46:29;9.30;90.70
7666;DHT22;3875;46.562;4.898;2023-12-20T10:48:58;9.30;90.40
7666;DHT22;3875;46.562;4.898;2023-12-20T10:51:24;9.40;89.80
7666;DHT22;3875;46.562;4.898;2023-12-20T10:53:55;9.40;89.80
7666;DHT22;3875;46.562;4.898;2023-12-20T10:56:21;9.40;90.50
7666;DHT22;3875;46.562;4.898;2023-12-20T10:58:49;9.50;90.30
7666;DHT22;3875;46.562;4.898;2023-12-20T11:01:16;9.50;89.40
7666;DHT22;3875;46.562;4.898;2023-12-20T11:03:49;9.60;89.30
7666;DHT22;3875;46.562;4.898;2023-12-20T11:07:08;9.50;89.00
7666;DHT22;3875;46.562;4.898;2023-12-20T11:09:56;9.60;90.30
7666;DHT22;3875;46.562;4.898;2023-12-20T11:12:49;9.60;89.60
7666;DHT22;3875;46.562;4.898;2023-12-20T11:15:16;9.40;88.20
7666;DHT22;3875;46.562;4.898;2023-12-20T11:17:44;9.40;89.00
7666;DHT22;3875;46.562;4.898;2023-12-20T11:20:12;9.50;88.70
7666;DHT22;3875;46.562;4.898;2023-12-20T11:22:38;9.50;88.90
7666;DHT22;3875;46.562;4.898;2023-12-20T11:25:09;9.60;88.40
7666;DHT22;3875;46.562;4.898;2023-12-20T11:27:36;9.60;88.70
7666;DHT22;3875;46.562;4.898;2023-12-20T11:30:05;9.60;88.60
7666;DHT22;3875;46.562;4.898;2023-12-20T11:32:35;9.50;88.50
7666;DHT22;3875;46.562;4.898;2023-12-20T11:35:17;9.40;88.80
7666;DHT22;3875;46.562;4.898;2023-12-20T11:37:45;9.30;88.70
7666;DHT22;3875;46.562;4.898;2023-12-20T11:40:15;9.30;89.40
7666;DHT22;3875;46.562;4.898;2023-12-20T11:42:42;9.20;88.00
7666;DHT22;3875;46.562;4.898;2023-12-20T11:45:15;9.10;87.60
7666;DHT22;3875;46.562;4.898;2023-12-20T11:47:51;9.00;87.00
7666;DHT22;3875;46.562;4.898;2023-12-20T11:50:19;9.00;87.30
7666;DHT22;3875;46.562;4.898;2023-12-20T11:52:45;9.10;87.20
7666;DHT22;3875;46.562;4.898;2023-12-20T11:55:11;9.20;86.00
7666;DHT22;3875;46.562;4.898;2023-12-20T11:57:41;9.10;86.40
7666;DHT22;3875;46.562;4.898;2023-12-20T12:00:07;9.10;86.50
7666;DHT22;3875;46.562;4.898;2023-12-20T12:02:33;8.90;85.10
7666;DHT22;3875;46.562;4.898;2023-12-20T12:04:59;8.80;86.50
7666;DHT22;3875;46.562;4.898;2023-12-20T12:07:25;8.80;87.60
7666;DHT22;3875;46.562;4.898;2023-12-20T12:09:53;8.80;87.80
7666;DHT22;3875;46.562;4.898;2023-12-20T12:12:19;8.80;87.30
7666;DHT22;3875;46.562;4.898;2023-12-20T12:14:46;8.80;87.60
7666;DHT22;3875;46.562;4.898;2023-12-20T12:17:12;9.00;87.30
7666;DHT22;3875;46.562;4.898;2023-12-20T12:19:42;9.10;85.50
7666;DHT22;3875;46.562;4.898;2023-12-20T12:24:43;9.40;86.10
7666;DHT22;3875;46.562;4.898;2023-12-20T12:27:09;9.50;84.50
7666;DHT22;3875;46.562;4.898;2023-12-20T12:29:35;9.30;83.80
7666;DHT22;3875;46.562;4.898;2023-12-20T12:32:07;9.30;85.50
7666;DHT22;3875;46.562;4.898;2023-12-20T12:34:34;9.20;85.30
7666;DHT22;3875;46.562;4.898;2023-12-20T12:37:00;9.20;85.10
7666;DHT22;3875;46.562;4.898;2023-12-20T12:39:26;9.10;85.70
7666;DHT22;3875;46.562;4.898;2023-12-20T12:41:52;9.20;86.20
7666;DHT22;3875;46.562;4.898;2023-12-20T12:44:19;9.30;86.10
7666;DHT22;3875;46.562;4.898;2023-12-20T12:46:46;9.40;86.40
7666;DHT22;3875;46.562;4.898;2023-12-20T12:49:11;9.40;85.40
7666;DHT22;3875;46.562;4.898;2023-12-20T12:51:37;9.30;84.10
7666;DHT22;3875;46.562;4.898;2023-12-20T12:54:03;9.10;83.40
7666;DHT22;3875;46.562;4.898;2023-12-20T12:56:29;8.90;83.90
7666;DHT22;3875;46.562;4.898;2023-12-20T12:58:55;8.80;85.00
7666;DHT22;3875;46.562;4.898;2023-12-20T13:01:20;8.80;85.50
7666;DHT22;3875;46.562;4.898;2023-12-20T13:03:46;8.90;84.90
7666;DHT22;3875;46.562;4.898;2023-12-20T13:06:12;8.90;85.10
7666;DHT22;3875;46.562;4.898;2023-12-20T13:08:38;9.00;86.20
7666;DHT22;3875;46.562;4.898;2023-12-20T13:11:04;9.10;85.80
7666;DHT22;3875;46.562;4.898;2023-12-20T13:13:30;9.10;86.00
7666;DHT22;3875;46.562;4.898;2023-12-20T13:15:56;9.20;86.40
7666;DHT22;3875;46.562;4.898;2023-12-20T13:18:22;9.20;86.00
7666;DHT22;3875;46.562;4.898;2023-12-20T13:20:48;9.30;86.80
7666;DHT22;3875;46.562;4.898;2023-12-20T13:23:17;9.30;86.90
7666;DHT22;3875;46.562;4.898;2023-12-20T13:25:46;9.30;86.30
7666;DHT22;3875;46.562;4.898;2023-12-20T13:28:12;9.30;86.40
7666;DHT22;3875;46.562;4.898;2023-12-20T13:30:41;9.20;86.90
7666;DHT22;3875;46.562;4.898;2023-12-20T13:33:07;9.20;87.50
7666;DHT22;3875;46.562;4.898;2023-12-20T13:35:34;9.20;87.40
7666;DHT22;3875;46.562;4.898;2023-12-20T13:38:00;9.20;88.10
7666;DHT22;3875;46.562;4.898;2023-12-20T13:40:26;9.10;87.80
7666;DHT22;3875;46.562;4.898;2023-12-20T13:42:52;9.00;87.40
7666;DHT22;3875;46.562;4.898;2023-12-20T13:45:18;9.00;87.50
7666;DHT22;3875;46.562;4.898;2023-12-20T13:47:43;8.90;87.20
7666;DHT22;3875;46.562;4.898;2023-12-20T13:50:09;8.80;87.20
7666;DHT22;3875;46.562;4.898;2023-12-20T13:52:38;8.70;87.50
7666;DHT22;3875;46.562;4.898;2023-12-20T13:55:04;8.70;88.50
7666;DHT22;3875;46.562;4.898;2023-12-20T13:57:32;8.70;88.80
7666;DHT22;3875;46.562;4.898;2023-12-20T13:59:58;8.70;88.20
7666;DHT22;3875;46.562;4.898;2023-12-20T14:02:24;8.60;87.90
7666;DHT22;3875;46.562;4.898;2023-12-20T14:04:53;8.60;88.30
7666;DHT22;3875;46.562;4.898;2023-12-20T14:07:19;8.60;89.10
7666;DHT22;3875;46.562;4.898;2023-12-20T14:09:44;8.70;89.50
7666;DHT22;3875;46.562;4.898;2023-12-20T14:12:14;8.80;88.80
7666;DHT22;3875;46.562;4.898;2023-12-20T14:14:39;8.80;88.70
7666;DHT22;3875;46.562;4.898;2023-12-20T14:17:05;8.70;88.80
7666;DHT22;3875;46.562;4.898;2023-12-20T14:19:32;8.70;88.80
7666;DHT22;3875;46.562;4.898;2023-12-20T14:21:58;8.70;88.30
7666;DHT22;3875;46.562;4.898;2023-12-20T14:24:29;8.70;88.50
7666;DHT22;3875;46.562;4.898;2023-12-20T14:26:57;8.60;88.60
7666;DHT22;3875;46.562;4.898;2023-12-20T14:29:24;8.60;88.10
7666;DHT22;3875;46.562;4.898;2023-12-20T14:31:49;8.50;88.20
7666;DHT22;3875;46.562;4.898;2023-12-20T14:34:15;8.40;88.60
7666;DHT22;3875;46.562;4.898;2023-12-20T14:36:42;8.30;88.90
7666;DHT22;3875;46.562;4.898;2023-12-20T14:39:07;8.30;89.10
7666;DHT22;3875;46.562;4.898;2023-12-20T14:41:34;8.20;89.30
7666;DHT22;3875;46.562;4.898;2023-12-20T14:43:59;8.10;89.50
7666;DHT22;3875;46.562;4.898;2023-12-20T14:46:26;8.10;89.80
7666;DHT22;3875;46.562;4.898;2023-12-20T14:48:52;8.10;90.10
7666;DHT22;3875;46.562;4.898;2023-12-20T14:51:18;8.10;90.20
7666;DHT22;3875;46.562;4.898;2023-12-20T14:53:44;8.10;89.90
7666;DHT22;3875;46.562;4.898;2023-12-20T14:56:10;8.00;90.10
7666;DHT22;3875;46.562;4.898;2023-12-20T14:58:38;7.90;90.30
7666;DHT22;3875;46.562;4.898;2023-12-20T15:01:04;7.90;90.60
7666;DHT22;3875;46.562;4.898;2023-12-20T15:03:29;7.90;90.60
7666;DHT22;3875;46.562;4.898;2023-12-20T15:05:56;7.80;90.60
7666;DHT22;3875;46.562;4.898;2023-12-20T15:08:24;7.80;90.70
7666;DHT22;3875;46.562;4.898;2023-12-20T15:10:50;7.70;90.70
7666;DHT22;3875;46.562;4.898;2023-12-20T15:13:16;7.70;90.70
7666;DHT22;3875;46.562;4.898;2023-12-20T15:15:42;7.60;91.10
7666;DHT22;3875;46.562;4.898;2023-12-20T15:18:07;7.60;91.40
7666;DHT22;3875;46.562;4.898;2023-12-20T15:20:33;7.60;91.70
7666;DHT22;3875;46.562;4.898;2023-12-20T15:22:59;7.60;91.90
7666;DHT22;3875;46.562;4.898;2023-12-20T15:25:31;7.60;92.10
7666;DHT22;3875;46.562;4.898;2023-12-20T15:27:57;7.60;92.10
7666;DHT22;3875;46.562;4.898;2023-12-20T15:30:23;7.60;92.20
7666;DHT22;3875;46.562;4.898;2023-12-20T15:32:51;7.50;92.20
7666;DHT22;3875;46.562;4.898;2023-12-20T15:35:17;7.40;92.10
7666;DHT22;3875;46.562;4.898;2023-12-20T15:37:43;7.30;92.40
7666;DHT22;3875;46.562;4.898;2023-12-20T15:40:09;7.30;92.80
7666;DHT22;3875;46.562;4.898;2023-12-20T15:42:39;7.30;93.10
7666;DHT22;3875;46.562;4.898;2023-12-20T15:45:06;7.40;93.20
7666;DHT22;3875;46.562;4.898;2023-12-20T15:47:34;7.40;93.30
7666;DHT22;3875;46.562;4.898;2023-12-20T15:50:04;7.40;93.40
7666;DHT22;3875;46.562;4.898;2023-12-20T15:52:31;7.40;93.40
7666;DHT22;3875;46.562;4.898;2023-12-20T15:54:57;7.40;93.50
7666;DHT22;3875;46.562;4.898;2023-12-20T15:57:23;7.40;93.50
7666;DHT22;3875;46.562;4.898;2023-12-20T15:59:49;7.40;93.60
7666;DHT22;3875;46.562;4.898;2023-12-20T16:02:16;7.40;93.70
7666;DHT22;3875;46.562;4.898;2023-12-20T16:04:42;7.40;93.90
7666;DHT22;3875;46.562;4.898;2023-12-20T16:07:08;7.30;94.10
7666;DHT22;3875;46.562;4.898;2023-12-20T16:09:34;7.30;94.30
7666;DHT22;3875;46.562;4.898;2023-12-20T16:11:59;7.30;94.40
7666;DHT22;3875;46.562;4.898;2023-12-20T16:14:25;7.30;94.40